createdAt,value
2019-01-31T00:02:17.199Z,11.22
2019-01-31T00:05:12.995Z,10.32
2019-01-31T00:07:55.748Z,14.38
2019-01-31T00:10:46.869Z,7.80
2019-01-31T00:13:36.858Z,10.53
2019-01-31T00:16:41.901Z,17.65
2019-01-31T00:19:25.245Z,15.95
2019-01-31T00:22:05.739Z,15.25
2019-01-31T00:24:37.250Z,12.40
2019-01-31T00:27:11.376Z,12.05
2019-01-31T00:29:48.000Z,11.25
2019-01-31T00:32:25.356Z,14.55
2019-01-31T00:34:59.504Z,12.45
2019-01-31T00:37:45.644Z,13.60
2019-01-31T00:40:35.367Z,11.80
2019-01-31T00:43:37.865Z,10.95
2019-01-31T00:46:24.420Z,7.97
2019-01-31T00:49:19.421Z,7.92
2019-01-31T00:52:12.099Z,6.10
2019-01-31T00:55:11.797Z,7.03
2019-01-31T00:57:49.125Z,9.15
2019-01-31T01:00:45.033Z,9.13
2019-01-31T01:03:24.808Z,10.93
2019-01-31T01:06:11.214Z,7.35
2019-01-31T01:09:07.559Z,6.83
2019-01-31T01:11:46.005Z,6.17
2019-01-31T01:14:35.396Z,6.47
2019-01-31T01:17:15.312Z,9.48
2019-01-31T01:20:04.938Z,10.25
2019-01-31T01:22:54.251Z,10.72
2019-01-31T01:25:43.684Z,6.05
2019-01-31T01:28:26.923Z,12.93
2019-01-31T01:30:58.686Z,6.65
2019-01-31T01:33:42.001Z,7.20
2019-01-31T01:36:43.281Z,5.53
2019-01-31T01:39:19.299Z,9.98
2019-01-31T01:42:08.340Z,6.87
2019-01-31T01:44:59.163Z,5.08
2019-01-31T01:47:30.663Z,6.03
2019-01-31T01:50:11.307Z,10.50
2019-01-31T01:52:51.651Z,11.12
2019-01-31T01:55:29.113Z,5.25
2019-01-31T01:58:15.590Z,6.10
2019-01-31T02:01:07.959Z,7.22
2019-01-31T02:04:13.540Z,9.45
2019-01-31T02:07:06.923Z,8.80
2019-01-31T02:09:38.421Z,6.45
2019-01-31T02:12:21.740Z,7.30
2019-01-31T02:15:12.624Z,7.03
2019-01-31T02:20:58.521Z,8.10
2019-01-31T02:23:38.964Z,7.08
2019-01-31T02:26:33.297Z,8.48
2019-01-31T02:29:07.906Z,6.45
2019-01-31T02:31:54.376Z,6.28
2019-01-31T02:34:52.409Z,5.53
2019-01-31T02:37:26.671Z,12.28
2019-01-31T02:40:09.517Z,4.65
2019-01-31T02:42:43.991Z,6.37
2019-01-31T02:45:23.893Z,6.90
2019-01-31T02:48:04.211Z,7.58
2019-01-31T02:50:50.766Z,5.33
2019-01-31T02:53:25.320Z,9.23
2019-01-31T02:56:02.541Z,8.90
2019-01-31T02:58:46.226Z,7.28
2019-01-31T03:01:23.711Z,7.40
2019-01-31T03:04:04.040Z,9.95
2019-01-31T03:06:41.084Z,6.83
2019-01-31T03:09:18.122Z,6.37
2019-01-31T03:11:49.634Z,7.33
2019-01-31T03:14:21.466Z,5.08
2019-01-31T03:17:07.752Z,5.62
2019-01-31T03:19:54.138Z,8.00
2019-01-31T03:22:34.315Z,4.53
2019-01-31T03:25:34.557Z,7.10
2019-01-31T03:28:23.704Z,6.45
2019-01-31T03:31:00.757Z,8.10
2019-01-31T03:33:47.125Z,5.65
2019-01-31T03:36:27.741Z,8.15
2019-01-31T03:39:15.465Z,5.37
2019-01-31T03:42:08.294Z,5.58
2019-01-31T03:44:45.370Z,5.15
2019-01-31T03:47:25.522Z,3.75
2019-01-31T03:50:02.706Z,8.53
2019-01-31T03:52:57.731Z,7.47
2019-01-31T03:56:01.170Z,5.08
2019-01-31T03:58:49.919Z,8.20
2019-01-31T04:01:38.778Z,11.80
2019-01-31T04:04:22.048Z,6.03
2019-01-31T04:06:50.473Z,6.80
2019-01-31T04:09:18.901Z,9.50
2019-01-31T04:11:47.333Z,4.78
2019-01-31T04:14:15.750Z,7.22
2019-01-31T04:16:44.179Z,5.33
2019-01-31T04:19:12.591Z,5.78
2019-01-31T04:21:41.329Z,3.67
2019-01-31T04:24:10.017Z,9.48
2019-01-31T04:26:38.444Z,5.55
2019-01-31T04:29:07.181Z,4.78
2019-01-31T04:31:35.594Z,4.97
2019-01-31T04:34:04.017Z,4.70
2019-01-31T04:36:32.726Z,4.00
2019-01-31T04:39:01.153Z,8.28
2019-01-31T04:41:29.564Z,5.35
2019-01-31T04:43:57.989Z,5.70
2019-01-31T04:46:26.401Z,4.80
2019-01-31T04:48:54.836Z,5.25
2019-01-31T04:51:23.248Z,8.20
2019-01-31T04:53:52.006Z,12.13
2019-01-31T04:56:20.434Z,9.55
2019-01-31T04:58:48.887Z,9.08
2019-01-31T05:01:17.304Z,9.20
2019-01-31T05:03:45.722Z,12.60
2019-01-31T05:06:14.141Z,14.65
2019-01-31T05:08:42.570Z,10.98
2019-01-31T05:11:10.986Z,10.40
2019-01-31T05:13:39.409Z,9.85
2019-01-31T05:16:07.819Z,7.08
2019-01-31T05:18:36.270Z,10.10
2019-01-31T05:21:05.185Z,9.48
2019-01-31T05:23:33.605Z,8.35
2019-01-31T05:26:02.089Z,9.50
2019-01-31T05:28:30.592Z,11.90
2019-01-31T05:30:59.005Z,11.57
2019-01-31T05:33:27.430Z,10.00
2019-01-31T05:36:15.185Z,9.08
2019-01-31T05:38:43.889Z,12.53
2019-01-31T05:41:12.301Z,7.37
2019-01-31T05:43:40.733Z,9.25
2019-01-31T05:46:09.208Z,10.28
2019-01-31T05:48:38.345Z,11.97
2019-01-31T05:51:06.753Z,8.38
2019-01-31T05:53:35.386Z,6.97
2019-01-31T05:56:04.217Z,10.13
2019-01-31T05:58:32.669Z,9.45
2019-01-31T06:01:01.091Z,11.08
2019-01-31T06:03:29.537Z,8.38
2019-01-31T06:05:58.001Z,8.68
2019-01-31T06:08:26.420Z,9.95
2019-01-31T06:10:54.836Z,9.15
2019-01-31T06:13:23.260Z,10.53
2019-01-31T06:15:51.677Z,12.73
2019-01-31T06:18:20.099Z,11.18
2019-01-31T06:20:48.523Z,8.98
2019-01-31T06:23:16.933Z,5.33
2019-01-31T06:25:45.364Z,10.82
2019-01-31T06:28:13.780Z,10.05
2019-01-31T06:30:42.202Z,6.55
2019-01-31T06:33:10.618Z,8.10
2019-01-31T06:35:58.378Z,8.18
2019-01-31T06:38:26.789Z,6.83
2019-01-31T06:40:55.213Z,9.53
2019-01-31T06:43:23.629Z,6.45
2019-01-31T06:45:52.049Z,7.22
2019-01-31T06:48:20.465Z,8.03
2019-01-31T06:50:48.901Z,9.40
2019-01-31T06:53:17.309Z,7.72
2019-01-31T06:55:45.737Z,9.80
2019-01-31T06:58:14.153Z,11.03
2019-01-31T07:00:42.928Z,7.35
2019-01-31T07:03:11.522Z,10.75
2019-01-31T07:05:59.277Z,7.60
2019-01-31T07:08:27.688Z,8.60
2019-01-31T07:10:56.113Z,9.90
2019-01-31T07:13:24.797Z,6.47
2019-01-31T07:15:53.221Z,10.72
2019-01-31T07:18:21.634Z,7.40
2019-01-31T07:20:50.335Z,7.42
2019-01-31T07:23:18.752Z,10.32
2019-01-31T07:25:47.177Z,8.70
2019-01-31T07:28:15.596Z,10.40
2019-01-31T07:30:44.092Z,11.48
2019-01-31T07:33:12.516Z,11.55
2019-01-31T07:35:40.956Z,9.75
2019-01-31T07:38:09.356Z,5.95
2019-01-31T07:40:37.790Z,11.83
2019-01-31T07:43:06.206Z,11.28
2019-01-31T07:45:34.949Z,8.75
2019-01-31T07:48:03.379Z,11.60
2019-01-31T07:50:31.801Z,5.55
2019-01-31T07:53:00.216Z,9.23
2019-01-31T07:55:28.645Z,6.10
2019-01-31T07:57:57.061Z,8.70
2019-01-31T08:00:26.033Z,9.53
2019-01-31T08:02:54.790Z,6.35
2019-01-31T08:05:24.265Z,7.12
2019-01-31T08:07:55.024Z,8.75
2019-01-31T08:10:32.416Z,7.85
2019-01-31T08:13:00.838Z,6.83
2019-01-31T08:15:29.252Z,7.28
2019-01-31T08:17:57.676Z,8.08
2019-01-31T08:20:26.099Z,8.05
2019-01-31T08:22:54.516Z,6.20
2019-01-31T08:25:25.140Z,3.75
2019-01-31T08:27:54.608Z,3.35
2019-01-31T08:30:31.504Z,5.50
2019-01-31T08:32:59.932Z,5.83
2019-01-31T08:35:28.345Z,7.15
2019-01-31T08:37:56.853Z,3.70
2019-01-31T08:40:25.333Z,4.05
2019-01-31T08:42:53.930Z,7.75
2019-01-31T08:45:22.322Z,6.08
2019-01-31T08:47:50.817Z,4.00
2019-01-31T08:50:27.978Z,5.37
2019-01-31T08:52:56.391Z,6.05
2019-01-31T08:55:24.808Z,6.47
2019-01-31T08:57:53.240Z,6.72
2019-01-31T09:00:29.604Z,4.65
2019-01-31T09:02:58.397Z,6.87
2019-01-31T09:05:26.822Z,3.77
2019-01-31T09:07:56.493Z,3.33
2019-01-31T09:10:27.353Z,3.85
2019-01-31T09:12:56.334Z,3.70
2019-01-31T09:15:26.189Z,3.20
2019-01-31T09:17:54.681Z,5.55
2019-01-31T09:20:26.185Z,4.10
2019-01-31T09:23:00.634Z,6.45
2019-01-31T09:26:06.140Z,4.75
2019-01-31T09:28:54.406Z,11.53
2019-01-31T09:31:28.813Z,4.83
2019-01-31T09:34:06.105Z,5.23
2019-01-31T09:36:49.736Z,11.68
2019-01-31T09:39:21.241Z,7.92
2019-01-31T09:41:58.725Z,7.93
2019-01-31T09:44:42.368Z,7.73
2019-01-31T09:47:35.064Z,6.13
2019-01-31T09:50:09.401Z,5.37
2019-01-31T09:53:12.700Z,8.53
2019-01-31T09:56:00.733Z,7.30
2019-01-31T09:58:35.140Z,6.20
2019-01-31T10:01:29.253Z,7.40
2019-01-31T10:04:19.788Z,7.13
2019-01-31T10:07:03.021Z,6.10
2019-01-31T10:09:33.595Z,5.70
2019-01-31T10:12:19.934Z,6.47
2019-01-31T10:14:51.465Z,8.57
2019-01-31T10:17:28.595Z,10.13
2019-01-31T10:20:20.552Z,10.03
2019-01-31T10:22:54.993Z,6.43
2019-01-31T10:25:29.124Z,9.28
2019-01-31T10:28:06.586Z,7.10
2019-01-31T10:30:49.845Z,9.67
2019-01-31T10:33:24.042Z,7.55
2019-01-31T10:36:05.817Z,6.17
2019-01-31T10:38:46.783Z,9.33
2019-01-31T10:41:30.129Z,9.10
2019-01-31T10:44:07.065Z,7.23
2019-01-31T10:46:38.565Z,6.80
2019-01-31T10:49:26.890Z,6.85
2019-01-31T10:52:10.165Z,7.83
2019-01-31T10:54:44.424Z,9.78
2019-01-31T10:57:15.913Z,8.57
2019-01-31T11:00:14.817Z,11.77
2019-01-31T11:02:52.381Z,7.97
2019-01-31T11:05:26.685Z,6.90
2019-01-31T11:08:18.857Z,5.33
2019-01-31T11:10:56.323Z,8.38
2019-01-31T11:13:44.665Z,5.97
2019-01-31T11:16:31.269Z,5.93
2019-01-31T11:19:12.739Z,6.10
2019-01-31T11:21:53.433Z,5.17
2019-01-31T11:24:43.052Z,6.10
2019-01-31T11:27:17.249Z,5.97
2019-01-31T11:29:54.449Z,5.20
2019-01-31T11:32:28.580Z,6.97
2019-01-31T11:35:00.137Z,5.30
2019-01-31T11:37:46.853Z,6.30
2019-01-31T11:40:30.410Z,6.73
2019-01-31T11:43:22.883Z,4.90
2019-01-31T11:46:12.510Z,5.20
2019-01-31T11:48:46.849Z,4.97
2019-01-31T11:51:33.072Z,7.73
2019-01-31T11:54:21.269Z,7.10
2019-01-31T11:57:05.588Z,5.73
2019-01-31T11:59:31.351Z,7.17
2019-01-31T12:01:59.916Z,5.57
2019-01-31T12:04:28.621Z,5.23
2019-01-31T12:06:57.052Z,5.07
2019-01-31T12:09:25.533Z,6.80
2019-01-31T12:11:53.950Z,7.67
2019-01-31T12:14:22.434Z,5.17
2019-01-31T12:16:50.896Z,5.40
2019-01-31T12:19:19.302Z,6.07
2019-01-31T12:21:47.758Z,5.17
2019-01-31T12:24:16.843Z,7.70
2019-01-31T12:26:45.471Z,4.23
2019-01-31T12:29:13.953Z,5.03
2019-01-31T12:31:42.449Z,6.43
2019-01-31T12:34:10.855Z,6.03
2019-01-31T12:36:39.283Z,5.23
2019-01-31T12:39:09.127Z,5.27
2019-01-31T12:41:37.556Z,5.63
2019-01-31T12:44:05.966Z,3.80
2019-01-31T12:46:34.481Z,4.63
2019-01-31T12:49:02.974Z,4.17
2019-01-31T12:51:31.457Z,5.87
2019-01-31T12:53:59.869Z,3.70
2019-01-31T12:56:28.369Z,3.90
2019-01-31T12:58:57.053Z,4.83
2019-01-31T13:01:25.476Z,3.87
2019-01-31T13:03:53.884Z,4.43
2019-01-31T13:06:22.316Z,3.43
2019-01-31T13:08:50.720Z,4.10
2019-01-31T13:11:19.188Z,5.13
2019-01-31T13:13:47.625Z,4.67
2019-01-31T13:16:16.122Z,5.03
2019-01-31T13:18:44.529Z,6.83
2019-01-31T13:21:13.235Z,4.77
2019-01-31T13:23:41.649Z,4.60
2019-01-31T13:26:10.070Z,6.60
2019-01-31T13:28:38.494Z,6.57
2019-01-31T13:31:06.924Z,4.87
2019-01-31T13:33:35.405Z,7.37
2019-01-31T13:36:05.610Z,4.97
2019-01-31T13:38:34.091Z,8.40
2019-01-31T13:41:02.513Z,6.23
2019-01-31T13:43:31.012Z,12.33
2019-01-31T13:45:59.738Z,5.00
2019-01-31T13:48:28.222Z,4.77
2019-01-31T13:50:56.711Z,7.67
2019-01-31T13:53:25.441Z,4.93
2019-01-31T13:55:56.210Z,6.17
2019-01-31T13:58:24.633Z,4.90
2019-01-31T14:00:53.381Z,6.07
2019-01-31T14:03:21.809Z,6.13
2019-01-31T14:05:50.254Z,5.03
2019-01-31T14:08:18.981Z,4.97
2019-01-31T14:10:47.403Z,4.13
2019-01-31T14:13:16.093Z,4.50
2019-01-31T14:15:44.517Z,5.17
2019-01-31T14:18:12.933Z,7.13
2019-01-31T14:20:41.349Z,6.00
2019-01-31T14:23:10.122Z,4.90
2019-01-31T14:25:38.534Z,4.73
2019-01-31T14:28:06.948Z,4.90
2019-01-31T14:30:37.412Z,6.57
2019-01-31T14:33:08.805Z,6.37
2019-01-31T14:35:37.285Z,4.80
2019-01-31T14:38:06.053Z,6.83
2019-01-31T14:40:34.466Z,9.67
2019-01-31T14:43:02.889Z,6.70
2019-01-31T14:45:31.577Z,6.13
2019-01-31T14:48:00.009Z,5.40
2019-01-31T14:50:31.506Z,7.30
2019-01-31T14:52:59.984Z,6.37
2019-01-31T14:55:28.397Z,6.57
2019-01-31T14:57:56.969Z,5.10
2019-01-31T15:00:28.098Z,5.53
2019-01-31T15:02:56.509Z,4.60
2019-01-31T15:05:25.258Z,5.40
2019-01-31T15:07:54.265Z,4.07
2019-01-31T15:10:27.925Z,4.80
2019-01-31T15:12:56.720Z,4.00
2019-01-31T15:15:25.147Z,6.40
2019-01-31T15:17:54.029Z,4.97
2019-01-31T15:20:37.671Z,4.75
2019-01-31T15:22:59.468Z,7.67
2019-01-31T15:25:27.890Z,4.83
2019-01-31T15:27:56.305Z,4.30
2019-01-31T15:30:32.501Z,5.63
2019-01-31T15:33:01.465Z,6.50
2019-01-31T15:35:29.897Z,7.00
2019-01-31T15:37:58.324Z,9.87
2019-01-31T15:40:30.162Z,6.40
2019-01-31T15:42:58.587Z,6.58
2019-01-31T15:45:27.086Z,6.63
2019-01-31T15:47:55.645Z,5.90
2019-01-31T15:50:24.517Z,5.80
2019-01-31T15:52:52.950Z,6.97
2019-01-31T15:55:26.735Z,5.00
2019-01-31T15:57:55.253Z,3.77
2019-01-31T16:00:34.317Z,5.73
2019-01-31T16:03:02.733Z,5.47
2019-01-31T16:05:31.168Z,6.13
2019-01-31T16:07:59.588Z,7.77
2019-01-31T16:10:28.023Z,5.83
2019-01-31T16:12:56.478Z,6.10
2019-01-31T16:15:25.084Z,5.70
2019-01-31T16:17:53.509Z,5.33
2019-01-31T16:20:22.009Z,5.10
2019-01-31T16:22:50.424Z,5.77
2019-01-31T16:25:18.861Z,8.48
2019-01-31T16:27:47.280Z,7.22
2019-01-31T16:30:17.557Z,12.58
2019-01-31T16:32:45.986Z,26.42
2019-01-31T16:35:16.833Z,35.28
2019-01-31T16:37:45.395Z,13.75
2019-01-31T16:40:15.906Z,11.15
2019-01-31T16:42:44.405Z,56.75
2019-01-31T16:45:15.152Z,19.02
2019-01-31T16:47:43.651Z,20.00
2019-01-31T16:50:14.896Z,19.10
2019-01-31T16:52:43.980Z,18.55
2019-01-31T16:55:15.121Z,14.13
2019-01-31T16:57:43.874Z,13.13
2019-01-31T17:00:18.512Z,18.82
2019-01-31T17:02:48.394Z,14.73
2019-01-31T17:05:19.193Z,12.58
2019-01-31T17:07:47.688Z,19.92
2019-01-31T17:10:16.195Z,17.42
2019-01-31T17:12:44.598Z,11.93
2019-01-31T17:15:18.201Z,11.15
2019-01-31T17:17:45.981Z,10.15
2019-01-31T17:20:29.969Z,7.75
2019-01-31T17:22:58.385Z,12.78
2019-01-31T17:25:27.152Z,11.70
2019-01-31T17:27:55.572Z,11.63
2019-01-31T17:30:25.938Z,10.90
2019-01-31T17:32:54.634Z,12.63
2019-01-31T17:35:23.113Z,9.38
2019-01-31T17:37:51.528Z,9.48
2019-01-31T17:40:28.508Z,7.28
2019-01-31T17:42:56.933Z,12.88
2019-01-31T17:45:30.397Z,10.10
2019-01-31T17:47:55.939Z,9.80
2019-01-31T17:50:24.342Z,10.25
2019-01-31T17:52:52.779Z,11.18
2019-01-31T17:55:23.233Z,12.15
2019-01-31T17:57:51.807Z,12.93
2019-01-31T18:00:24.556Z,13.95
2019-01-31T18:02:53.405Z,13.72
2019-01-31T18:05:21.821Z,10.10
2019-01-31T18:07:50.244Z,10.98
2019-01-31T18:10:21.433Z,10.65
2019-01-31T18:12:49.878Z,15.35
2019-01-31T18:15:18.529Z,24.47
2019-01-31T18:17:46.953Z,19.82
2019-01-31T18:20:18.485Z,42.27
2019-01-31T18:22:46.921Z,47.65
2019-01-31T18:25:16.102Z,42.50
2019-01-31T18:27:44.529Z,16.07
2019-01-31T18:30:34.049Z,18.25
